Airfield :







YOU CAN JOIN US ON...

 
LOGIN :

Register | Disclaimer

   EN    FR    IT 

 









Legend :    VFR   Marginal VFR   IFR   Intensive IFR   Very Intensive IFR
Visi :
Ceiling :
>= 8 km
>= 3000ft
5 to 8 km
1000 to 3000 ft
1500m to 5 km
500 to 1000 ft
800 to 1500m
200 to 500 ft
< 800m
< 200 ft
Symbols :   Thunderstorms  Fog  Heavy snow  Heavy precipitations  Wind > 20 kt







- Airport Elevation : 244 ft
- IATA code : YQB


CYQB - Quebec - Jean Lesage Int.

CURRENT METAR :
  • 160100Z 25009KT 15SM BKN068 12/10 A2999 RMK AC7 SLP159

EXPIRED METARs :
  • 160000Z 24006KT 15SM BKN035 13/10 A2999 RMK SC5 SLP159
  • 152300Z 26013G22KT 20SM FEW035 SCT055 BKN080 14/10 A2998 RMK SC1SC4AC2 SC TR SLP155

TAF TAF CYQB
Valid from the 16 at 00:00 until the 17 at 00:00 UTC


152338Z 1600/1624 26012G22KT P6SM SCT030 BKN080
TEMPO 1600/1604 P6SM -SHRA BKN030 BKN070
FM160400 26008KT P6SM BKN025
TEMPO 1604/1606 BKN020
FM160600 26008KT P6SM BKN020
FM161400 29010KT P6SM BKN025
FM161900 29012KT P6SM -SHRA BKN040
BECMG 1622/1624 29008KT RMK NXT FCST BY 160600Z
ATIS : ENG : +1 418-871-6893 FRA : +1 418-871-6895
No reported NOTAMs for that airfield.



MET'MAP, your aeronautical weather chart ! - Copyright ORBIFLY December 2007 - Disclaimer

ORBIFLY MET'MAP TEAM :

Programming & Development : Alexandra Zaïnal
Concept & Development : Baudouin d'Aumeries
Co-Development & Prog : Marc-Olivier Méhu
Technical & hardware support : Manuel Goepfert

Contact : metmap@orbifly.com




SOURCES & CREDITS :

   NOAA